createdAt,value
2022-08-20T00:01:39.767Z,21.59
2022-08-20T00:04:06.878Z,21.58
2022-08-20T00:06:34.257Z,21.47
2022-08-20T00:09:01.276Z,21.50
2022-08-20T00:11:28.953Z,21.40
2022-08-20T00:14:01.091Z,21.46
2022-08-20T00:16:35.289Z,21.35
2022-08-20T00:19:07.710Z,21.32
2022-08-20T00:21:36.311Z,21.38
2022-08-20T00:24:04.934Z,21.28
2022-08-20T00:26:32.045Z,21.22
2022-08-20T00:28:59.107Z,21.13
2022-08-20T00:31:26.767Z,20.97
2022-08-20T00:33:54.398Z,20.90
2022-08-20T00:36:22.617Z,20.68
2022-08-20T00:38:59.725Z,20.77
2022-08-20T00:41:28.046Z,20.54
2022-08-20T00:44:16.288Z,20.73
2022-08-20T00:46:45.887Z,20.71
2022-08-20T00:49:27.861Z,20.76
2022-08-20T00:52:13.644Z,20.74
2022-08-20T00:54:55.153Z,20.95
2022-08-20T00:58:00.957Z,20.87
2022-08-20T01:00:42.827Z,20.89
2022-08-20T01:03:14.914Z,21.00
2022-08-20T01:05:48.469Z,20.89
2022-08-20T01:08:20.368Z,21.02
2022-08-20T01:10:50.931Z,20.98
2022-08-20T01:13:24.290Z,20.94
2022-08-20T01:15:56.079Z,20.85
2022-08-20T01:18:27.943Z,20.85
2022-08-20T01:21:01.296Z,20.91
2022-08-20T01:24:14.497Z,20.86
2022-08-20T01:26:47.234Z,21.03
2022-08-20T01:29:23.713Z,20.90
2022-08-20T01:31:51.267Z,20.98
2022-08-20T01:34:20.708Z,20.99
2022-08-20T01:36:53.338Z,20.66
2022-08-20T01:39:30.727Z,20.70
2022-08-20T01:42:27.130Z,20.74
2022-08-20T01:44:54.113Z,20.85
2022-08-20T01:47:36.383Z,20.90
2022-08-20T01:50:26.036Z,20.80
2022-08-20T01:53:30.055Z,20.91
2022-08-20T01:55:57.152Z,20.90
2022-08-20T01:58:24.400Z,20.73
2022-08-20T02:00:51.384Z,20.69
2022-08-20T02:03:18.346Z,20.70
2022-08-20T02:05:45.474Z,20.80
2022-08-20T02:08:12.504Z,20.87
2022-08-20T02:10:40.450Z,20.88
2022-08-20T02:13:10.002Z,20.96
2022-08-20T02:15:39.800Z,20.89
2022-08-20T02:18:12.588Z,20.68
2022-08-20T02:20:40.802Z,20.69
2022-08-20T02:23:10.007Z,20.85
2022-08-20T02:25:40.166Z,20.93
2022-08-20T02:28:15.100Z,20.93
2022-08-20T02:30:48.938Z,20.74
2022-08-20T02:33:20.665Z,20.85
2022-08-20T02:35:53.303Z,20.82
2022-08-20T02:38:20.422Z,20.91
2022-08-20T02:40:48.995Z,20.62
2022-08-20T02:43:18.347Z,20.72
2022-08-20T02:45:45.872Z,20.63
2022-08-20T02:48:21.209Z,20.65
2022-08-20T02:51:03.758Z,20.43
2022-08-20T02:53:37.983Z,20.62
2022-08-20T02:56:11.215Z,20.61
2022-08-20T02:58:40.366Z,20.62
2022-08-20T03:01:18.119Z,20.60
2022-08-20T03:03:45.668Z,20.57
2022-08-20T03:06:14.482Z,20.46
2022-08-20T03:08:42.787Z,20.36
2022-08-20T03:11:10.197Z,20.42
2022-08-20T03:13:37.577Z,20.21
2022-08-20T03:16:05.471Z,20.31
2022-08-20T03:18:42.242Z,20.31
2022-08-20T03:21:11.412Z,20.16
2022-08-20T03:23:43.452Z,20.34
2022-08-20T03:26:13.816Z,20.31
2022-08-20T03:28:42.495Z,20.22
2022-08-20T03:31:12.654Z,20.08
2022-08-20T03:33:48.864Z,20.04
2022-08-20T03:36:28.614Z,20.11
2022-08-20T03:39:04.353Z,20.11
2022-08-20T03:41:32.233Z,20.12
2022-08-20T03:43:59.252Z,20.10
2022-08-20T03:46:26.265Z,20.05
2022-08-20T03:48:56.607Z,20.10
2022-08-20T03:51:34.350Z,20.11
2022-08-20T03:54:19.223Z,20.14
2022-08-20T03:56:46.187Z,20.24
2022-08-20T03:59:13.208Z,20.20
2022-08-20T04:01:46.150Z,20.17
2022-08-20T04:04:15.236Z,20.19
2022-08-20T04:06:43.676Z,20.21
2022-08-20T04:09:12.268Z,20.19
2022-08-20T04:11:41.228Z,20.20
2022-08-20T04:14:09.338Z,20.06
2022-08-20T04:16:39.447Z,20.00
2022-08-20T04:19:07.401Z,20.09
2022-08-20T04:21:36.659Z,20.15
2022-08-20T04:24:06.099Z,20.10
2022-08-20T04:26:36.263Z,20.11
2022-08-20T04:29:04.852Z,20.20
2022-08-20T04:31:35.129Z,20.19
2022-08-20T04:34:07.829Z,20.26
2022-08-20T04:36:35.459Z,20.35
2022-08-20T04:39:02.489Z,20.42
2022-08-20T04:41:29.494Z,20.39
2022-08-20T04:43:58.211Z,20.33
2022-08-20T04:46:28.692Z,20.31
2022-08-20T04:48:57.423Z,20.25
2022-08-20T04:51:25.076Z,20.44
2022-08-20T04:53:56.509Z,20.31
2022-08-20T04:56:31.054Z,20.38
2022-08-20T04:59:02.013Z,20.45
2022-08-20T05:01:29.597Z,20.43
2022-08-20T05:03:58.732Z,20.56
2022-08-20T05:06:31.662Z,20.62
2022-08-20T05:09:00.995Z,20.59
2022-08-20T05:11:33.744Z,20.48
2022-08-20T05:14:02.755Z,20.54
2022-08-20T05:16:29.816Z,20.15
2022-08-20T05:18:56.826Z,20.32
2022-08-20T05:21:23.822Z,20.11
2022-08-20T05:23:50.832Z,20.23
2022-08-20T05:26:20.139Z,20.29
2022-08-20T05:28:54.459Z,20.21
2022-08-20T05:31:32.559Z,20.15
2022-08-20T05:34:10.038Z,20.15
2022-08-20T05:36:45.317Z,20.26
2022-08-20T05:39:15.133Z,20.27
2022-08-20T05:41:42.281Z,20.24
2022-08-20T05:44:13.417Z,20.24
2022-08-20T05:46:44.040Z,20.27
2022-08-20T05:49:19.971Z,20.29
2022-08-20T05:51:49.342Z,20.24
2022-08-20T05:54:16.450Z,20.27
2022-08-20T05:56:43.478Z,20.28
2022-08-20T05:59:13.889Z,20.18
2022-08-20T06:01:42.848Z,20.30
2022-08-20T06:04:31.901Z,20.51
2022-08-20T06:07:08.063Z,20.60
2022-08-20T06:09:36.216Z,20.70
2022-08-20T06:12:07.718Z,20.60
2022-08-20T06:14:35.719Z,20.48
2022-08-20T06:17:15.259Z,20.56
2022-08-20T06:19:44.886Z,20.48
2022-08-20T06:22:21.155Z,20.50
2022-08-20T06:24:51.078Z,20.27
2022-08-20T06:27:18.642Z,20.45
2022-08-20T06:29:45.779Z,20.47
2022-08-20T06:32:13.039Z,20.55
2022-08-20T06:34:50.070Z,20.42
2022-08-20T06:37:31.067Z,20.37
2022-08-20T06:40:19.431Z,20.23
2022-08-20T06:42:48.726Z,20.54
2022-08-20T06:45:25.410Z,20.74
2022-08-20T06:47:57.405Z,20.67
2022-08-20T06:50:44.471Z,20.75
2022-08-20T06:53:20.518Z,20.74
2022-08-20T06:55:56.826Z,20.53
2022-08-20T06:58:32.722Z,20.50
2022-08-20T07:01:11.205Z,20.51
2022-08-20T07:03:54.751Z,20.63
2022-08-20T07:06:27.252Z,20.41
2022-08-20T07:08:55.726Z,20.35
2022-08-20T07:11:27.832Z,20.44
2022-08-20T07:13:58.076Z,20.60
2022-08-20T07:16:25.752Z,20.44
2022-08-20T07:18:52.774Z,20.56
2022-08-20T07:21:19.831Z,20.80
2022-08-20T07:23:49.410Z,20.67
2022-08-20T07:26:17.618Z,20.50
2022-08-20T07:28:45.148Z,20.59
2022-08-20T07:31:31.463Z,20.65
2022-08-20T07:34:00.269Z,20.55
2022-08-20T07:36:28.126Z,20.55
2022-08-20T07:38:56.934Z,20.57
2022-08-20T07:41:24.499Z,20.64
2022-08-20T07:43:51.619Z,20.70
2022-08-20T07:46:21.515Z,20.78
2022-08-20T07:48:50.242Z,20.79
2022-08-20T07:51:22.378Z,20.62
2022-08-20T07:53:51.966Z,20.72
2022-08-20T07:56:24.369Z,20.63
2022-08-20T07:58:55.534Z,20.53
2022-08-20T08:01:31.819Z,20.58
2022-08-20T08:04:00.617Z,20.67
2022-08-20T08:06:31.400Z,20.65
2022-08-20T08:09:11.301Z,20.54
2022-08-20T08:11:50.221Z,20.65
2022-08-20T08:14:23.583Z,20.72
2022-08-20T08:16:52.951Z,20.59
2022-08-20T08:19:20.903Z,20.71
2022-08-20T08:21:49.410Z,20.43
2022-08-20T08:24:21.681Z,20.61
2022-08-20T08:26:50.146Z,20.56
2022-08-20T08:29:17.469Z,20.68
2022-08-20T08:31:44.697Z,20.74
2022-08-20T08:34:12.958Z,20.80
2022-08-20T08:36:40.632Z,20.87
2022-08-20T08:39:07.906Z,20.96
2022-08-20T08:41:48.345Z,20.76
2022-08-20T08:44:30.799Z,20.81
2022-08-20T08:47:18.134Z,20.88
2022-08-20T08:49:47.328Z,20.79
2022-08-20T08:52:32.774Z,20.98
2022-08-20T08:55:07.358Z,20.99
2022-08-20T08:57:34.348Z,21.14
2022-08-20T09:00:13.836Z,21.16
2022-08-20T09:02:53.072Z,21.59
2022-08-20T09:05:23.516Z,21.41
2022-08-20T09:07:54.263Z,21.17
2022-08-20T09:10:23.197Z,21.43
2022-08-20T09:12:52.147Z,21.65
2022-08-20T09:15:21.164Z,21.50
2022-08-20T09:17:48.308Z,21.68
2022-08-20T09:20:15.384Z,21.72
2022-08-20T09:22:42.385Z,21.95
2022-08-20T09:25:09.677Z,22.09
2022-08-20T09:27:36.731Z,22.11
2022-08-20T09:30:07.411Z,22.00
2022-08-20T09:32:34.580Z,22.12
2022-08-20T09:35:04.027Z,22.08
2022-08-20T09:37:37.485Z,21.87
2022-08-20T09:40:08.723Z,21.93
2022-08-20T09:42:41.282Z,22.02
2022-08-20T09:45:11.580Z,21.78
2022-08-20T09:47:55.169Z,21.99
2022-08-20T09:50:30.527Z,22.02
2022-08-20T09:53:00.896Z,21.75
2022-08-20T09:55:43.328Z,22.03
2022-08-20T09:58:45.346Z,22.16
2022-08-20T10:01:16.840Z,22.21
2022-08-20T10:03:48.119Z,22.12
2022-08-20T10:06:19.789Z,22.18
2022-08-20T10:08:48.845Z,22.02
2022-08-20T10:11:18.086Z,22.37
2022-08-20T10:13:45.685Z,22.04
2022-08-20T10:16:13.162Z,22.11
2022-08-20T10:18:40.623Z,22.25
2022-08-20T10:21:12.072Z,22.36
2022-08-20T10:23:39.094Z,22.31
2022-08-20T10:26:12.489Z,22.19
2022-08-20T10:28:39.807Z,22.09
2022-08-20T10:31:09.274Z,21.91
2022-08-20T10:33:38.360Z,22.17
2022-08-20T10:36:17.241Z,22.13
2022-08-20T10:38:45.453Z,22.07
2022-08-20T10:41:12.502Z,22.34
2022-08-20T10:43:39.674Z,22.36
2022-08-20T10:46:07.002Z,22.30
2022-08-20T10:48:34.124Z,22.61
2022-08-20T10:51:01.247Z,22.50
2022-08-20T10:53:28.305Z,22.35
2022-08-20T10:55:57.560Z,22.51
2022-08-20T10:58:27.016Z,22.83
2022-08-20T11:01:04.977Z,23.05
2022-08-20T11:03:32.046Z,23.03
2022-08-20T11:05:59.040Z,22.64
2022-08-20T11:08:34.485Z,22.75
2022-08-20T11:11:05.489Z,22.87
2022-08-20T11:13:34.902Z,22.99
2022-08-20T11:16:03.760Z,22.96
2022-08-20T11:18:31.421Z,22.86
2022-08-20T11:20:58.639Z,22.76
2022-08-20T11:23:25.681Z,22.81
2022-08-20T11:25:52.797Z,23.04
2022-08-20T11:28:31.197Z,22.65
2022-08-20T11:30:58.668Z,22.88
2022-08-20T11:33:25.683Z,22.70
2022-08-20T11:35:52.817Z,22.88
2022-08-20T11:38:19.915Z,23.15
2022-08-20T11:40:47.619Z,23.30
2022-08-20T11:43:17.001Z,23.52
2022-08-20T11:45:53.121Z,23.18
2022-08-20T11:48:20.415Z,22.88
2022-08-20T11:50:49.356Z,23.13
2022-08-20T11:53:16.433Z,23.39
2022-08-20T11:55:44.505Z,22.78
2022-08-20T11:58:12.026Z,22.93
2022-08-20T12:00:39.548Z,22.62
2022-08-20T12:03:09.237Z,22.62
2022-08-20T12:05:43.645Z,22.86
2022-08-20T12:08:27.727Z,22.94
2022-08-20T12:11:01.339Z,23.03
2022-08-20T12:13:48.827Z,23.15
2022-08-20T12:16:18.839Z,23.26
2022-08-20T12:18:48.200Z,23.30
2022-08-20T12:21:16.052Z,23.23
2022-08-20T12:23:43.043Z,23.16
2022-08-20T12:26:10.109Z,23.26
2022-08-20T12:28:37.574Z,23.27
2022-08-20T12:31:04.995Z,23.29
2022-08-20T12:33:32.000Z,23.27
2022-08-20T12:35:59.407Z,23.46
2022-08-20T12:38:26.538Z,23.36
2022-08-20T12:40:53.568Z,23.30
2022-08-20T12:43:24.690Z,23.41
2022-08-20T12:45:52.319Z,23.16
2022-08-20T12:48:20.785Z,23.22
2022-08-20T12:50:49.855Z,23.23
2022-08-20T12:53:17.041Z,23.32
2022-08-20T12:55:44.174Z,23.36
2022-08-20T12:58:12.177Z,23.04
2022-08-20T13:00:50.350Z,23.27
2022-08-20T13:03:19.952Z,23.22
2022-08-20T13:05:47.667Z,23.07
2022-08-20T13:08:14.770Z,23.26
2022-08-20T13:10:46.763Z,23.11
2022-08-20T13:13:17.489Z,23.36
2022-08-20T13:15:50.191Z,23.16
2022-08-20T13:18:17.925Z,23.12
2022-08-20T13:20:45.079Z,23.24
2022-08-20T13:23:12.098Z,22.84
2022-08-20T13:25:39.113Z,22.94
2022-08-20T13:28:06.159Z,22.99
2022-08-20T13:30:38.390Z,22.65
2022-08-20T13:33:05.416Z,22.75
2022-08-20T13:35:32.508Z,22.63
2022-08-20T13:37:59.610Z,22.96
2022-08-20T13:40:28.349Z,22.72
2022-08-20T13:42:55.590Z,22.54
2022-08-20T13:45:22.652Z,22.57
2022-08-20T13:47:54.670Z,22.47
2022-08-20T13:50:25.346Z,22.45
2022-08-20T13:52:52.431Z,22.36
2022-08-20T13:55:23.942Z,22.45
2022-08-20T13:57:51.843Z,22.35
2022-08-20T14:00:32.326Z,22.39
2022-08-20T14:03:06.554Z,22.31
2022-08-20T14:05:34.645Z,21.99
2022-08-20T14:08:23.722Z,21.62
2022-08-20T14:10:51.803Z,21.66
2022-08-20T14:13:23.935Z,21.69
2022-08-20T14:15:51.855Z,21.73
2022-08-20T14:18:19.800Z,21.75
2022-08-20T14:20:46.870Z,21.85
2022-08-20T14:23:15.630Z,21.73
2022-08-20T14:25:48.133Z,21.57
2022-08-20T14:28:23.292Z,21.45
2022-08-20T14:30:53.492Z,21.56
2022-08-20T14:33:23.559Z,21.69
2022-08-20T14:35:51.779Z,21.78
2022-08-20T14:38:18.766Z,21.73
2022-08-20T14:40:45.945Z,21.74
2022-08-20T14:43:12.963Z,21.81
2022-08-20T14:45:39.959Z,21.97
2022-08-20T14:48:09.208Z,22.05
2022-08-20T14:50:37.628Z,22.05
2022-08-20T14:53:05.443Z,22.12
2022-08-20T14:55:37.741Z,22.11
2022-08-20T14:58:11.145Z,22.23
2022-08-20T15:00:39.653Z,22.35
2022-08-20T15:03:06.895Z,22.25
2022-08-20T15:05:34.941Z,22.37
2022-08-20T15:08:07.379Z,22.25
2022-08-20T15:10:34.817Z,22.45
2022-08-20T15:13:02.619Z,22.36
2022-08-20T15:15:30.042Z,22.35
2022-08-20T15:18:02.372Z,22.31
2022-08-20T15:20:33.546Z,22.35
2022-08-20T15:23:01.672Z,22.33
2022-08-20T15:25:36.621Z,22.22
2022-08-20T15:28:09.017Z,21.94
2022-08-20T15:30:39.963Z,22.07
2022-08-20T15:33:09.079Z,21.84
2022-08-20T15:35:36.669Z,21.72
2022-08-20T15:38:03.825Z,21.80
2022-08-20T15:40:33.415Z,21.83
2022-08-20T15:43:03.856Z,21.73
2022-08-20T15:45:32.520Z,21.18
2022-08-20T15:48:20.264Z,21.41
2022-08-20T15:51:37.948Z,21.49
2022-08-20T15:54:24.884Z,21.56
2022-08-20T15:57:14.022Z,21.45
2022-08-20T16:00:40.483Z,21.40
2022-08-20T16:03:58.868Z,21.59
2022-08-20T16:06:30.857Z,21.57
2022-08-20T16:09:43.349Z,21.64
2022-08-20T16:12:25.396Z,21.52
2022-08-20T16:15:00.041Z,21.45
2022-08-20T16:18:18.570Z,21.39
2022-08-20T16:20:51.478Z,21.48
2022-08-20T16:23:26.849Z,21.35
2022-08-20T16:26:40.482Z,21.16
2022-08-20T16:29:31.588Z,21.00
2022-08-20T16:32:19.221Z,21.16
2022-08-20T16:35:03.162Z,21.09
2022-08-20T16:37:45.068Z,21.09
2022-08-20T16:40:44.091Z,21.20
2022-08-20T16:43:36.723Z,21.21
2022-08-20T16:46:20.015Z,21.24
2022-08-20T16:49:08.259Z,21.30
2022-08-20T16:51:52.203Z,21.37
2022-08-20T16:54:29.487Z,21.44
2022-08-20T16:57:04.958Z,21.31
2022-08-20T16:59:33.499Z,20.92
2022-08-20T17:02:10.262Z,20.97
2022-08-20T17:04:59.004Z,21.00
2022-08-20T17:07:51.192Z,20.85
2022-08-20T17:10:35.850Z,20.87
2022-08-20T17:13:19.103Z,21.04
2022-08-20T17:16:20.174Z,21.04
2022-08-20T17:18:53.794Z,21.12
2022-08-20T17:21:38.061Z,21.06
2022-08-20T17:24:29.089Z,21.09
2022-08-20T17:27:14.837Z,21.14
2022-08-20T17:30:04.766Z,21.07
2022-08-20T17:32:31.928Z,21.07
2022-08-20T17:35:02.233Z,20.95
2022-08-20T17:37:40.707Z,20.95
2022-08-20T17:40:46.079Z,20.99
2022-08-20T17:43:31.550Z,20.94
2022-08-20T17:46:05.226Z,21.04
2022-08-20T17:48:48.610Z,20.83
2022-08-20T17:51:28.014Z,21.05
2022-08-20T17:54:13.348Z,21.06
2022-08-20T17:56:44.588Z,21.09
2022-08-20T18:00:00.412Z,21.10
2022-08-20T18:02:34.964Z,21.19
2022-08-20T18:05:05.835Z,21.17
2022-08-20T18:08:14.698Z,21.13
2022-08-20T18:11:13.651Z,21.19
2022-08-20T18:14:08.179Z,21.24
2022-08-20T18:16:58.334Z,21.13
2022-08-20T18:19:48.178Z,21.10
2022-08-20T18:22:30.753Z,21.18
2022-08-20T18:25:34.726Z,21.08
2022-08-20T18:28:15.188Z,21.20
2022-08-20T18:31:00.369Z,20.85
2022-08-20T18:33:39.307Z,20.76
2022-08-20T18:36:24.378Z,20.47
2022-08-20T18:39:24.400Z,20.29
2022-08-20T18:42:09.046Z,20.34
2022-08-20T18:44:51.094Z,20.32
2022-08-20T18:47:46.385Z,20.49
2022-08-20T18:50:48.803Z,20.49
2022-08-20T18:53:33.903Z,20.53
2022-08-20T18:56:14.592Z,20.62
2022-08-20T18:59:14.967Z,20.62
2022-08-20T19:01:46.431Z,20.72
2022-08-20T19:04:31.908Z,20.76
2022-08-20T19:07:10.108Z,20.77
2022-08-20T19:10:27.472Z,20.64
2022-08-20T19:13:46.035Z,20.73
2022-08-20T19:16:41.621Z,20.60
2022-08-20T19:19:23.928Z,20.68
2022-08-20T19:21:52.327Z,20.68
2022-08-20T19:24:33.488Z,20.71
2022-08-20T19:27:08.797Z,20.78
2022-08-20T19:29:49.684Z,20.74
2022-08-20T19:32:29.007Z,20.61
2022-08-20T19:35:06.427Z,20.73
2022-08-20T19:37:51.075Z,20.75
2022-08-20T19:40:38.838Z,20.64
2022-08-20T19:43:15.271Z,20.62
2022-08-20T19:45:54.395Z,20.63
2022-08-20T19:49:08.962Z,20.50
2022-08-20T19:52:29.166Z,20.29
2022-08-20T19:55:02.826Z,20.40
2022-08-20T19:57:30.818Z,20.39
2022-08-20T20:00:11.552Z,20.46
2022-08-20T20:02:41.439Z,20.54
2022-08-20T20:05:11.169Z,20.51
2022-08-20T20:07:45.128Z,20.50
2022-08-20T20:10:35.009Z,20.54
2022-08-20T20:13:14.814Z,20.55
2022-08-20T20:15:42.511Z,20.58
2022-08-20T20:18:10.252Z,20.51
2022-08-20T20:20:57.827Z,20.46
2022-08-20T20:23:45.743Z,20.53
2022-08-20T20:26:19.855Z,20.55
2022-08-20T20:29:00.527Z,20.43
2022-08-20T20:31:41.343Z,20.48
2022-08-20T20:34:15.057Z,20.44
2022-08-20T20:36:47.727Z,20.34
2022-08-20T20:39:37.369Z,20.42
2022-08-20T20:42:10.363Z,20.30
2022-08-20T20:44:44.453Z,20.28
2022-08-20T20:47:37.906Z,20.26
2022-08-20T20:50:11.546Z,20.30
2022-08-20T20:52:54.393Z,20.30
2022-08-20T20:55:22.849Z,20.32
2022-08-20T20:57:51.476Z,20.37
2022-08-20T21:00:23.323Z,20.36
2022-08-20T21:02:50.591Z,20.38
2022-08-20T21:05:25.001Z,20.38
2022-08-20T21:08:03.096Z,20.44
2022-08-20T21:10:35.327Z,20.38
2022-08-20T21:13:05.556Z,20.33
2022-08-20T21:15:35.183Z,20.36
2022-08-20T21:18:07.827Z,20.42
2022-08-20T21:20:35.590Z,20.32
2022-08-20T21:23:02.984Z,20.34
2022-08-20T21:25:32.923Z,20.22
2022-08-20T21:28:00.460Z,20.23
2022-08-20T21:30:28.148Z,20.19
2022-08-20T21:32:55.577Z,20.14
2022-08-20T21:35:22.874Z,20.15
2022-08-20T21:37:50.082Z,20.18
2022-08-20T21:40:18.168Z,19.90
2022-08-20T21:42:48.773Z,20.05
2022-08-20T21:45:19.622Z,20.01
2022-08-20T21:47:48.991Z,19.97
2022-08-20T21:50:19.705Z,19.94
2022-08-20T21:52:59.236Z,19.82
2022-08-20T21:55:38.783Z,19.96
2022-08-20T21:58:07.286Z,19.96
2022-08-20T22:01:01.769Z,19.78
2022-08-20T22:03:38.779Z,19.76
2022-08-20T22:06:12.369Z,19.74
2022-08-20T22:08:40.162Z,19.71
2022-08-20T22:11:09.929Z,19.71
2022-08-20T22:13:37.397Z,19.67
2022-08-20T22:16:10.814Z,19.53
2022-08-20T22:18:38.366Z,19.55
2022-08-20T22:21:11.045Z,19.47
2022-08-20T22:23:40.126Z,19.57
2022-08-20T22:26:08.511Z,19.59
2022-08-20T22:28:36.777Z,19.51
2022-08-20T22:31:04.983Z,19.59
2022-08-20T22:33:33.883Z,19.61
2022-08-20T22:36:02.244Z,19.57
2022-08-20T22:38:29.300Z,19.53
2022-08-20T22:40:56.318Z,19.50
2022-08-20T22:43:24.198Z,19.46
2022-08-20T22:46:00.790Z,19.48
2022-08-20T22:48:28.813Z,19.49
2022-08-20T22:50:57.730Z,19.49
2022-08-20T22:53:27.350Z,19.61
2022-08-20T22:55:55.281Z,19.73
2022-08-20T22:58:30.996Z,19.72
2022-08-20T23:00:59.861Z,19.67
2022-08-20T23:03:39.189Z,19.73
2022-08-20T23:06:09.392Z,19.63
2022-08-20T23:08:37.836Z,19.62
2022-08-20T23:11:05.062Z,19.61
2022-08-20T23:13:32.128Z,19.63
2022-08-20T23:15:59.570Z,19.65
2022-08-20T23:18:26.574Z,19.68
2022-08-20T23:20:57.657Z,19.52
2022-08-20T23:23:27.199Z,19.55
2022-08-20T23:25:54.923Z,19.50
2022-08-20T23:28:25.589Z,19.46
2022-08-20T23:30:53.104Z,19.43
2022-08-20T23:33:20.110Z,19.44
2022-08-20T23:35:48.145Z,19.40
2022-08-20T23:38:15.413Z,19.40
2022-08-20T23:40:43.151Z,19.38
2022-08-20T23:43:10.643Z,19.42
2022-08-20T23:45:40.192Z,19.35
2022-08-20T23:48:08.273Z,19.37
2022-08-20T23:50:35.934Z,19.28
2022-08-20T23:53:04.424Z,19.38
2022-08-20T23:55:31.814Z,19.37
2022-08-20T23:57:58.852Z,19.25
